createdAt,value
2018-09-11T00:00:32.614Z,98.10
2018-09-11T00:03:00.165Z,98.10
2018-09-11T00:05:27.799Z,98.10
2018-09-11T00:07:55.419Z,98.00
2018-09-11T00:10:23.093Z,98.00
2018-09-11T00:12:50.671Z,98.10
2018-09-11T00:15:18.198Z,98.10
2018-09-11T00:17:45.780Z,98.10
2018-09-11T00:20:13.321Z,98.10
2018-09-11T00:22:40.842Z,98.10
2018-09-11T00:25:08.423Z,98.00
2018-09-11T00:27:35.928Z,98.10
2018-09-11T00:30:04.022Z,98.00
2018-09-11T00:32:31.646Z,98.00
2018-09-11T00:34:59.223Z,98.00
2018-09-11T00:37:26.770Z,98.10
2018-09-11T00:39:54.316Z,98.10
2018-09-11T00:42:21.885Z,98.20
2018-09-11T00:44:49.522Z,98.20
2018-09-11T00:47:17.046Z,98.20
2018-09-11T00:49:44.611Z,98.30
2018-09-11T00:52:12.148Z,98.30
2018-09-11T00:54:39.769Z,98.40
2018-09-11T00:57:07.312Z,98.30
2018-09-11T00:59:34.841Z,98.30
2018-09-11T01:02:02.395Z,98.30
2018-09-11T01:04:29.964Z,98.60
2018-09-11T01:06:57.540Z,98.40
2018-09-11T01:09:25.124Z,98.40
2018-09-11T01:11:52.669Z,98.40
2018-09-11T01:14:20.241Z,98.50
2018-09-11T01:16:47.837Z,98.60
2018-09-11T01:19:15.406Z,98.50
2018-09-11T01:21:43.074Z,98.50
2018-09-11T01:24:10.632Z,98.50
2018-09-11T01:26:38.352Z,98.50
2018-09-11T01:29:05.981Z,98.50
2018-09-11T01:31:33.631Z,98.50
2018-09-11T01:34:01.140Z,98.50
2018-09-11T01:36:28.734Z,98.50
2018-09-11T01:38:56.300Z,98.60
2018-09-11T01:41:23.999Z,98.50
2018-09-11T01:43:51.594Z,98.50
2018-09-11T01:46:19.165Z,98.60
2018-09-11T01:48:46.704Z,98.60
2018-09-11T01:51:14.258Z,98.70
2018-09-11T01:53:41.838Z,98.70
2018-09-11T01:56:09.374Z,98.80
2018-09-11T01:58:37.026Z,98.90
2018-09-11T02:01:04.586Z,98.90
2018-09-11T02:03:32.106Z,98.90
2018-09-11T02:05:59.660Z,98.90
2018-09-11T02:08:27.216Z,99.00
2018-09-11T02:10:54.768Z,98.90
2018-09-11T02:13:22.296Z,98.90
2018-09-11T02:15:49.993Z,99.00
2018-09-11T02:18:17.542Z,99.10
2018-09-11T02:20:45.082Z,99.10
2018-09-11T02:23:13.132Z,99.10
2018-09-11T02:25:40.712Z,99.20
2018-09-11T02:28:08.277Z,99.50
2018-09-11T02:30:35.866Z,99.20
2018-09-11T02:33:03.437Z,99.30
2018-09-11T02:35:31.186Z,99.20
2018-09-11T02:37:58.731Z,99.30
2018-09-11T02:40:26.266Z,99.30
2018-09-11T02:42:53.818Z,99.40
2018-09-11T02:45:22.846Z,99.40
2018-09-11T02:47:51.408Z,99.40
2018-09-11T02:50:18.957Z,99.40
2018-09-11T02:52:46.541Z,99.40
2018-09-11T02:55:14.121Z,99.40
2018-09-11T02:57:41.719Z,99.40
2018-09-11T03:00:09.261Z,99.40
2018-09-11T03:02:36.811Z,99.50
2018-09-11T03:05:04.446Z,99.60
2018-09-11T03:07:32.001Z,99.90
2018-09-11T03:09:59.559Z,99.90
2018-09-11T03:12:27.101Z,99.90
2018-09-11T03:14:54.613Z,99.90
2018-09-11T03:17:22.174Z,99.90
2018-09-11T03:19:49.759Z,99.90
2018-09-11T03:22:17.272Z,99.60
2018-09-11T03:24:44.797Z,99.30
2018-09-11T03:27:12.344Z,99.00
2018-09-11T03:29:40.020Z,98.70
2018-09-11T03:32:07.697Z,98.60
2018-09-11T03:34:35.275Z,98.70
2018-09-11T03:37:02.802Z,98.80
2018-09-11T03:39:30.360Z,98.90
2018-09-11T03:41:57.936Z,99.10
2018-09-11T03:44:25.497Z,99.30
2018-09-11T03:46:53.048Z,99.40
2018-09-11T03:49:20.584Z,99.50
2018-09-11T03:51:48.142Z,99.60
2018-09-11T03:54:15.726Z,99.70
2018-09-11T03:56:43.284Z,99.70
2018-09-11T03:59:10.859Z,99.80
2018-09-11T04:01:38.338Z,99.90
2018-09-11T04:04:05.942Z,99.90
2018-09-11T04:06:33.566Z,99.90
2018-09-11T04:09:01.122Z,99.90
2018-09-11T04:11:28.728Z,99.90
2018-09-11T04:13:56.271Z,99.90
2018-09-11T04:16:23.842Z,99.90
2018-09-11T04:18:51.364Z,99.90
2018-09-11T04:21:18.958Z,99.90
2018-09-11T04:23:46.493Z,99.90
2018-09-11T04:26:14.111Z,99.90
2018-09-11T04:28:41.727Z,99.90
2018-09-11T04:31:09.319Z,99.90
2018-09-11T04:33:37.281Z,99.90
2018-09-11T04:36:04.924Z,99.90
2018-09-11T04:38:32.467Z,99.90
2018-09-11T04:41:00.037Z,99.90
2018-09-11T04:43:27.550Z,99.90
2018-09-11T04:45:55.158Z,99.90
2018-09-11T04:48:22.697Z,99.90
2018-09-11T04:50:50.229Z,99.90
2018-09-11T04:53:17.775Z,99.90
2018-09-11T04:55:45.330Z,99.90
2018-09-11T04:58:12.881Z,99.90
2018-09-11T05:00:40.495Z,99.90
2018-09-11T05:03:08.067Z,99.90
2018-09-11T05:05:35.645Z,99.90
2018-09-11T05:08:03.207Z,99.90
2018-09-11T05:10:30.755Z,99.90
2018-09-11T05:12:58.319Z,99.90
2018-09-11T05:15:25.850Z,99.90
2018-09-11T05:17:53.472Z,99.90
2018-09-11T05:20:20.996Z,99.90
2018-09-11T05:22:48.535Z,99.90
2018-09-11T05:25:16.073Z,99.90
2018-09-11T05:27:43.647Z,99.90
2018-09-11T05:30:11.172Z,99.90
2018-09-11T05:32:38.760Z,99.90
2018-09-11T05:35:06.652Z,99.90
2018-09-11T05:37:34.474Z,99.90
2018-09-11T05:40:02.113Z,99.90
2018-09-11T05:42:29.662Z,99.90
2018-09-11T05:44:57.224Z,99.90
2018-09-11T05:47:24.747Z,99.90
2018-09-11T05:49:52.299Z,99.90
2018-09-11T05:52:19.874Z,99.90
2018-09-11T05:54:47.456Z,99.90
2018-09-11T05:57:14.978Z,99.90
2018-09-11T05:59:42.566Z,99.90
2018-09-11T06:02:10.188Z,99.90
2018-09-11T06:04:37.766Z,99.90
2018-09-11T06:07:05.313Z,99.90
2018-09-11T06:09:32.864Z,99.90
2018-09-11T06:12:00.433Z,99.90
2018-09-11T06:14:27.956Z,99.90
2018-09-11T06:16:55.486Z,99.90
2018-09-11T06:19:23.073Z,99.90
2018-09-11T06:21:50.595Z,99.90
2018-09-11T06:24:18.168Z,99.90
2018-09-11T06:26:45.741Z,99.90
2018-09-11T06:29:13.340Z,99.90
2018-09-11T06:31:40.869Z,98.90
2018-09-11T06:34:08.443Z,98.40
2018-09-11T06:36:36.435Z,98.10
2018-09-11T06:39:06.130Z,98.00
2018-09-11T06:41:33.659Z,97.80
2018-09-11T06:44:01.185Z,97.90
2018-09-11T06:46:28.737Z,97.90
2018-09-11T06:48:56.305Z,97.90
2018-09-11T06:51:23.841Z,98.00
2018-09-11T06:53:51.341Z,98.10
2018-09-11T06:56:18.872Z,98.10
2018-09-11T06:58:46.419Z,98.00
2018-09-11T07:01:13.956Z,97.80
2018-09-11T07:03:41.500Z,97.80
2018-09-11T07:06:09.059Z,97.70
2018-09-11T07:08:36.657Z,97.60
2018-09-11T07:11:04.255Z,97.40
2018-09-11T07:13:31.772Z,97.20
2018-09-11T07:15:59.320Z,97.30
2018-09-11T07:18:26.855Z,97.20
2018-09-11T07:20:54.423Z,97.20
2018-09-11T07:23:22.023Z,97.10
2018-09-11T07:25:49.597Z,96.40
2018-09-11T07:28:17.167Z,95.50
2018-09-11T07:30:44.720Z,94.30
2018-09-11T07:33:12.268Z,92.80
2018-09-11T07:35:39.822Z,92.40
2018-09-11T07:38:07.415Z,91.40
2018-09-11T07:40:35.008Z,91.10
2018-09-11T07:43:02.561Z,90.80
2018-09-11T07:45:30.121Z,90.00
2018-09-11T07:47:57.740Z,89.30
2018-09-11T07:50:25.289Z,88.90
2018-09-11T07:52:52.859Z,87.60
2018-09-11T07:55:20.395Z,87.10
2018-09-11T07:57:47.996Z,86.80
2018-09-11T08:00:15.523Z,87.10
2018-09-11T08:02:43.028Z,86.40
2018-09-11T08:05:10.604Z,84.90
2018-09-11T08:07:38.251Z,84.80
2018-09-11T08:10:05.984Z,85.10
2018-09-11T08:12:33.509Z,85.00
2018-09-11T08:15:01.121Z,83.90
2018-09-11T08:17:28.654Z,83.60
2018-09-11T08:19:56.354Z,83.50
2018-09-11T08:22:24.021Z,83.00
2018-09-11T08:24:51.629Z,83.10
2018-09-11T08:27:19.178Z,82.30
2018-09-11T08:29:46.744Z,82.30
2018-09-11T08:32:14.288Z,82.30
2018-09-11T08:34:41.902Z,82.00
2018-09-11T08:37:09.504Z,80.80
2018-09-11T08:39:37.044Z,81.00
2018-09-11T08:42:04.763Z,81.50
2018-09-11T08:44:32.349Z,81.10
2018-09-11T08:46:59.887Z,80.90
2018-09-11T08:49:27.481Z,80.20
2018-09-11T08:51:55.001Z,78.50
2018-09-11T08:54:22.550Z,79.80
2018-09-11T08:56:50.072Z,79.20
2018-09-11T08:59:17.639Z,77.90
2018-09-11T09:01:45.214Z,77.80
2018-09-11T09:04:12.760Z,74.30
2018-09-11T09:06:40.344Z,75.00
2018-09-11T09:09:08.958Z,75.70
2018-09-11T09:11:36.906Z,75.90
2018-09-11T09:14:04.506Z,75.90
2018-09-11T09:16:32.076Z,75.40
2018-09-11T09:18:59.646Z,74.70
2018-09-11T09:21:27.200Z,72.90
2018-09-11T09:23:54.785Z,71.40
2018-09-11T09:26:22.336Z,70.00
2018-09-11T09:28:49.892Z,70.40
2018-09-11T09:31:17.457Z,71.40
2018-09-11T09:33:45.002Z,71.50
2018-09-11T09:36:12.571Z,71.10
2018-09-11T09:38:40.096Z,70.60
2018-09-11T09:41:07.663Z,70.70
2018-09-11T09:43:35.270Z,70.40
2018-09-11T09:46:02.843Z,70.40
2018-09-11T09:48:30.415Z,70.30
2018-09-11T09:50:57.988Z,70.00
2018-09-11T09:53:25.513Z,69.10
2018-09-11T09:55:53.119Z,67.60
2018-09-11T09:58:20.645Z,67.80
2018-09-11T10:00:53.849Z,68.40
2018-09-11T10:03:21.413Z,67.20
2018-09-11T10:05:48.996Z,66.20
2018-09-11T10:08:16.560Z,66.40
2018-09-11T10:10:44.131Z,66.00
2018-09-11T10:13:11.722Z,66.10
2018-09-11T10:15:39.301Z,66.20
2018-09-11T10:18:07.011Z,65.90
2018-09-11T10:20:34.590Z,64.50
2018-09-11T10:23:02.156Z,63.30
2018-09-11T10:25:29.697Z,64.10
2018-09-11T10:27:57.224Z,63.70
2018-09-11T10:30:24.777Z,63.90
2018-09-11T10:32:52.346Z,64.50
2018-09-11T10:35:19.936Z,64.10
2018-09-11T10:37:47.474Z,63.70
2018-09-11T10:40:15.065Z,63.80
2018-09-11T10:42:42.610Z,62.90
2018-09-11T10:45:10.173Z,61.70
2018-09-11T10:47:37.739Z,61.50
2018-09-11T10:50:05.497Z,59.80
2018-09-11T10:52:33.103Z,59.90
2018-09-11T10:55:00.644Z,59.40
2018-09-11T10:57:28.198Z,58.50
2018-09-11T10:59:55.744Z,56.80
2018-09-11T11:02:23.283Z,56.00
2018-09-11T11:04:50.833Z,55.60
2018-09-11T11:07:18.439Z,56.10
2018-09-11T11:09:45.996Z,55.70
2018-09-11T11:12:13.566Z,55.40
2018-09-11T11:14:41.143Z,55.10
2018-09-11T11:17:08.753Z,54.70
2018-09-11T11:19:36.265Z,54.10
2018-09-11T11:22:03.872Z,53.70
2018-09-11T11:24:31.440Z,53.70
2018-09-11T11:26:59.096Z,52.20
2018-09-11T11:29:26.644Z,52.00
2018-09-11T11:31:54.203Z,51.80
2018-09-11T11:34:21.774Z,52.10
2018-09-11T11:36:49.551Z,51.60
2018-09-11T11:39:17.054Z,51.30
2018-09-11T11:41:44.669Z,50.20
2018-09-11T11:44:12.194Z,49.60
2018-09-11T11:46:39.756Z,50.50
2018-09-11T11:49:07.264Z,49.00
2018-09-11T11:51:34.842Z,48.40
2018-09-11T11:54:02.368Z,48.10
2018-09-11T11:56:30.005Z,48.20
2018-09-11T11:58:58.109Z,48.50
2018-09-11T12:01:25.764Z,48.80
2018-09-11T12:03:53.489Z,47.50
2018-09-11T12:06:21.035Z,47.50
2018-09-11T12:08:48.616Z,48.00
2018-09-11T12:11:16.184Z,50.00
2018-09-11T12:13:43.719Z,48.90
2018-09-11T12:16:11.323Z,48.20
2018-09-11T12:18:38.887Z,47.60
2018-09-11T12:21:06.151Z,47.10
2018-09-11T12:23:33.765Z,47.10
2018-09-11T12:26:01.289Z,46.90
2018-09-11T12:28:28.869Z,47.30
2018-09-11T12:30:56.483Z,47.30
2018-09-11T12:33:24.017Z,47.30
2018-09-11T12:35:51.624Z,44.70
2018-09-11T12:38:19.266Z,44.70
2018-09-11T12:40:46.869Z,44.60
2018-09-11T12:43:14.429Z,45.00
2018-09-11T12:45:42.123Z,45.30
2018-09-11T12:48:10.148Z,45.40
2018-09-11T12:50:37.341Z,44.30
2018-09-11T12:53:04.999Z,44.80
2018-09-11T12:55:32.557Z,44.90
2018-09-11T12:58:00.115Z,44.60
2018-09-11T13:00:27.662Z,43.60
2018-09-11T13:02:55.245Z,43.40
2018-09-11T13:05:22.759Z,43.10
2018-09-11T13:07:50.301Z,42.50
2018-09-11T13:10:17.858Z,42.10
2018-09-11T13:12:45.437Z,40.50
2018-09-11T13:15:13.030Z,40.70
2018-09-11T13:17:40.575Z,40.70
2018-09-11T13:20:08.158Z,41.40
2018-09-11T13:22:35.706Z,41.70
2018-09-11T13:25:03.306Z,41.00
2018-09-11T13:27:30.836Z,41.00
2018-09-11T13:29:58.366Z,41.00
2018-09-11T13:32:25.961Z,40.50
2018-09-11T13:34:53.498Z,40.50
2018-09-11T13:37:21.044Z,40.70
2018-09-11T13:39:48.570Z,40.90
2018-09-11T13:42:16.100Z,39.90
2018-09-11T13:44:43.655Z,39.40
2018-09-11T13:47:11.255Z,40.00
2018-09-11T13:49:38.798Z,40.80
2018-09-11T13:52:06.398Z,39.80
2018-09-11T13:54:33.935Z,39.50
2018-09-11T13:57:01.525Z,39.50
2018-09-11T13:59:29.134Z,38.60
2018-09-11T14:01:56.676Z,37.70
2018-09-11T14:04:24.221Z,37.90
2018-09-11T14:06:51.811Z,38.00
2018-09-11T14:09:19.352Z,38.80
2018-09-11T14:11:46.859Z,38.10
2018-09-11T14:14:14.417Z,37.80
2018-09-11T14:16:41.983Z,36.90
2018-09-11T14:19:10.102Z,36.30
2018-09-11T14:21:37.684Z,36.70
2018-09-11T14:24:05.286Z,37.60
2018-09-11T14:26:32.843Z,37.60
2018-09-11T14:29:00.428Z,38.40
2018-09-11T14:31:27.980Z,37.90
2018-09-11T14:33:55.514Z,37.60
2018-09-11T14:36:23.095Z,37.30
2018-09-11T14:38:50.668Z,37.30
2018-09-11T14:41:18.291Z,37.20
2018-09-11T14:43:45.966Z,36.70
2018-09-11T14:46:13.535Z,37.30
2018-09-11T14:48:41.136Z,37.50
2018-09-11T14:51:08.701Z,38.00
2018-09-11T14:53:36.246Z,38.60
2018-09-11T14:56:03.990Z,39.10
2018-09-11T14:58:31.579Z,39.80
2018-09-11T15:00:59.149Z,39.40
2018-09-11T15:03:26.791Z,39.50
2018-09-11T15:05:54.316Z,40.00
2018-09-11T15:08:21.887Z,39.70
2018-09-11T15:10:49.433Z,39.90
2018-09-11T15:13:16.957Z,39.60
2018-09-11T15:15:44.528Z,39.90
2018-09-11T15:18:12.093Z,39.60
2018-09-11T15:20:39.668Z,39.60
2018-09-11T15:23:07.237Z,39.80
2018-09-11T15:25:34.814Z,40.40
2018-09-11T15:28:02.348Z,40.70
2018-09-11T15:30:29.886Z,40.60
2018-09-11T15:32:57.486Z,40.50
2018-09-11T15:35:25.103Z,40.50
2018-09-11T15:37:52.677Z,39.60
2018-09-11T15:40:20.285Z,39.50
2018-09-11T15:42:47.885Z,40.20
2018-09-11T15:45:15.463Z,40.40
2018-09-11T15:47:43.001Z,40.10
2018-09-11T15:50:10.565Z,40.50
2018-09-11T15:52:38.140Z,41.10
2018-09-11T15:55:05.754Z,41.10
2018-09-11T15:57:33.367Z,41.80
2018-09-11T16:00:00.913Z,41.90
2018-09-11T16:02:28.553Z,41.20
2018-09-11T16:04:56.130Z,41.00
2018-09-11T16:07:23.742Z,40.10
2018-09-11T16:09:51.307Z,40.40
2018-09-11T16:12:18.864Z,41.50
2018-09-11T16:14:46.420Z,41.70
2018-09-11T16:17:14.073Z,41.30
2018-09-11T16:19:41.701Z,41.20
2018-09-11T16:22:09.331Z,41.80
2018-09-11T16:24:36.970Z,41.50
2018-09-11T16:27:04.607Z,42.60
2018-09-11T16:29:32.189Z,43.80
2018-09-11T16:31:59.758Z,44.30
2018-09-11T16:34:27.310Z,45.40
2018-09-11T16:36:54.868Z,46.40
2018-09-11T16:39:22.432Z,47.20
2018-09-11T16:41:49.990Z,47.80
2018-09-11T16:44:17.515Z,48.50
2018-09-11T16:46:45.141Z,49.10
2018-09-11T16:49:12.700Z,49.40
2018-09-11T16:51:40.260Z,50.00
2018-09-11T16:54:07.868Z,49.70
2018-09-11T16:56:35.454Z,50.60
2018-09-11T16:59:03.323Z,52.10
2018-09-11T17:01:30.882Z,54.70
2018-09-11T17:03:58.563Z,56.80
2018-09-11T17:06:26.447Z,58.50
2018-09-11T17:08:54.022Z,58.70
2018-09-11T17:11:21.631Z,59.20
2018-09-11T17:13:49.185Z,60.30
2018-09-11T17:16:17.019Z,61.80
2018-09-11T17:18:44.723Z,63.10
2018-09-11T17:21:12.885Z,64.60
2018-09-11T17:23:40.507Z,65.60
2018-09-11T17:26:08.095Z,64.90
2018-09-11T17:28:35.707Z,64.10
2018-09-11T17:31:03.300Z,64.40
2018-09-11T17:33:30.905Z,64.60
2018-09-11T17:35:58.567Z,65.40
2018-09-11T17:38:26.195Z,66.40
2018-09-11T17:40:53.925Z,67.80
2018-09-11T17:43:21.777Z,68.90
2018-09-11T17:45:49.404Z,70.00
2018-09-11T17:48:17.044Z,71.10
2018-09-11T17:50:44.780Z,71.80
2018-09-11T17:53:12.451Z,72.00
2018-09-11T17:55:40.187Z,72.50
2018-09-11T17:58:07.831Z,73.20
2018-09-11T18:00:35.833Z,73.40
2018-09-11T18:03:03.541Z,73.50
2018-09-11T18:05:31.135Z,72.90
2018-09-11T18:07:58.864Z,73.10
2018-09-11T18:10:26.535Z,73.30
2018-09-11T18:12:54.983Z,73.90
2018-09-11T18:15:22.650Z,74.60
2018-09-11T18:17:50.286Z,75.50
2018-09-11T18:20:18.640Z,76.10
2018-09-11T18:22:46.217Z,75.70
2018-09-11T18:25:14.312Z,75.20
2018-09-11T18:27:43.112Z,75.30
2018-09-11T18:30:11.686Z,76.40
2018-09-11T18:32:39.360Z,77.70
2018-09-11T18:35:07.181Z,78.60
2018-09-11T18:37:34.926Z,79.40
2018-09-11T18:40:03.395Z,80.10
2018-09-11T18:42:31.127Z,81.10
2018-09-11T18:44:58.882Z,82.80
2018-09-11T18:47:26.776Z,83.80
2018-09-11T18:49:54.432Z,85.30
2018-09-11T18:52:22.861Z,86.50
2018-09-11T18:54:50.552Z,87.50
2018-09-11T18:57:18.297Z,88.50
2018-09-11T18:59:47.043Z,88.90
2018-09-11T19:02:14.755Z,89.30
2018-09-11T19:04:42.465Z,89.50
2018-09-11T19:07:10.761Z,90.10
2018-09-11T19:09:38.426Z,90.30
2018-09-11T19:12:05.885Z,90.40
2018-09-11T19:14:33.640Z,90.90
2018-09-11T19:17:03.211Z,90.80
2018-09-11T19:19:30.896Z,90.90
2018-09-11T19:21:58.661Z,91.10
2018-09-11T19:24:26.466Z,91.20
2018-09-11T19:26:54.208Z,91.50
2018-09-11T19:29:21.843Z,91.70
2018-09-11T19:31:49.581Z,91.90
2018-09-11T19:34:17.647Z,92.10
2018-09-11T19:36:45.393Z,92.20
2018-09-11T19:39:13.633Z,92.40
2018-09-11T19:41:41.608Z,92.50
2018-09-11T19:44:09.251Z,92.70
2018-09-11T19:46:36.971Z,92.90
2018-09-11T19:49:05.174Z,93.10
2018-09-11T19:51:34.159Z,93.30
2018-09-11T19:54:01.852Z,93.40
2018-09-11T19:56:29.620Z,93.60
2018-09-11T19:58:58.067Z,93.80
2018-09-11T20:01:25.642Z,94.10
2018-09-11T20:03:53.325Z,94.30
2018-09-11T20:06:21.474Z,94.60
2018-09-11T20:08:49.154Z,94.80
2018-09-11T20:11:16.849Z,95.20
2018-09-11T20:13:44.555Z,95.30
2018-09-11T20:16:12.241Z,95.60
2018-09-11T20:18:40.001Z,95.70
2018-09-11T20:21:07.711Z,95.80
2018-09-11T20:23:35.461Z,95.90
2018-09-11T20:26:03.153Z,96.00
2018-09-11T20:28:31.545Z,96.20
2018-09-11T20:30:59.163Z,96.40
2018-09-11T20:33:27.644Z,96.50
2018-09-11T20:35:55.343Z,96.60
2018-09-11T20:38:23.117Z,96.70
2018-09-11T20:40:50.774Z,96.80
2018-09-11T20:43:18.803Z,96.90
2018-09-11T20:45:46.490Z,97.00
2018-09-11T20:48:15.139Z,97.10
2018-09-11T20:50:42.741Z,97.20
2018-09-11T20:53:10.370Z,97.30
2018-09-11T20:55:38.089Z,97.40
2018-09-11T20:58:05.719Z,97.60
2018-09-11T21:00:33.350Z,97.70
2018-09-11T21:03:00.988Z,97.70
2018-09-11T21:05:28.678Z,97.80
2018-09-11T21:07:56.273Z,97.90
2018-09-11T21:10:23.856Z,98.00
2018-09-11T21:12:51.496Z,98.00
2018-09-11T21:15:19.066Z,98.10
2018-09-11T21:17:46.640Z,98.20
2018-09-11T21:20:14.222Z,98.20
2018-09-11T21:22:41.788Z,98.30
2018-09-11T21:25:09.383Z,98.40
2018-09-11T21:27:36.958Z,98.60
2018-09-11T21:30:04.704Z,98.70
2018-09-11T21:32:32.252Z,98.80
2018-09-11T21:34:59.882Z,98.90
2018-09-11T21:37:27.508Z,98.90
2018-09-11T21:39:55.101Z,99.00
2018-09-11T21:42:22.688Z,99.00
2018-09-11T21:44:50.233Z,99.00
2018-09-11T21:47:17.776Z,99.10
2018-09-11T21:49:45.444Z,99.10
2018-09-11T21:52:12.998Z,99.20
2018-09-11T21:54:40.571Z,99.30
2018-09-11T21:57:08.133Z,99.30
2018-09-11T21:59:35.703Z,99.40
2018-09-11T22:02:03.248Z,99.40
2018-09-11T22:04:30.781Z,99.40
2018-09-11T22:06:58.389Z,99.50
2018-09-11T22:09:26.052Z,99.50
2018-09-11T22:11:53.624Z,99.60
2018-09-11T22:14:21.137Z,99.50
2018-09-11T22:16:48.689Z,99.60
2018-09-11T22:19:16.277Z,99.70
2018-09-11T22:21:43.844Z,99.70
2018-09-11T22:24:11.414Z,99.90
2018-09-11T22:26:39.028Z,99.80
2018-09-11T22:29:06.598Z,99.90
2018-09-11T22:31:34.160Z,99.90
2018-09-11T22:34:01.869Z,99.90
2018-09-11T22:36:29.402Z,99.90
2018-09-11T22:38:56.955Z,99.90
2018-09-11T22:41:24.492Z,99.90
2018-09-11T22:43:52.533Z,99.90
2018-09-11T22:46:20.308Z,99.90
2018-09-11T22:48:47.868Z,99.90
2018-09-11T22:51:15.415Z,99.90
2018-09-11T22:53:42.945Z,99.90
2018-09-11T22:56:10.493Z,99.90
2018-09-11T22:58:38.094Z,99.90
2018-09-11T23:01:05.631Z,99.90
2018-09-11T23:03:33.312Z,99.90
2018-09-11T23:06:00.871Z,99.90
2018-09-11T23:08:28.420Z,99.90
2018-09-11T23:10:56.003Z,99.90
2018-09-11T23:13:23.733Z,99.90
2018-09-11T23:15:51.300Z,99.90
2018-09-11T23:18:18.855Z,99.90
2018-09-11T23:20:46.465Z,99.90
2018-09-11T23:23:14.498Z,99.90
2018-09-11T23:25:42.064Z,99.90
2018-09-11T23:28:09.602Z,99.90
2018-09-11T23:30:37.163Z,99.90
2018-09-11T23:33:04.862Z,99.90
2018-09-11T23:35:32.460Z,99.90
2018-09-11T23:38:00.052Z,99.90
2018-09-11T23:40:27.667Z,99.90
2018-09-11T23:42:55.205Z,99.90
2018-09-11T23:45:22.776Z,99.90
2018-09-11T23:47:50.339Z,99.90
2018-09-11T23:50:17.895Z,99.90
2018-09-11T23:52:45.545Z,99.90
2018-09-11T23:55:13.231Z,99.90
2018-09-11T23:57:40.954Z,99.90
